createdAt,value
2023-05-14T00:01:36.312Z,14.32
2023-05-14T00:04:03.929Z,17.73
2023-05-14T00:06:30.688Z,13.68
2023-05-14T00:08:57.495Z,14.75
2023-05-14T00:11:24.334Z,15.65
2023-05-14T00:13:51.068Z,13.98
2023-05-14T00:16:17.758Z,18.50
2023-05-14T00:18:44.558Z,18.42
2023-05-14T00:21:11.606Z,15.45
2023-05-14T00:23:38.430Z,18.35
2023-05-14T00:26:05.231Z,16.38
2023-05-14T00:28:31.988Z,15.70
2023-05-14T00:30:58.681Z,17.40
2023-05-14T00:33:25.384Z,15.75
2023-05-14T00:35:52.273Z,16.38
2023-05-14T00:38:19.544Z,19.83
2023-05-14T00:40:51.158Z,22.52
2023-05-14T00:43:19.424Z,20.85
2023-05-14T00:45:46.092Z,20.05
2023-05-14T00:48:13.022Z,20.48
2023-05-14T00:50:39.876Z,19.17
2023-05-14T00:53:10.240Z,18.92
2023-05-14T00:55:38.181Z,21.58
2023-05-14T00:58:08.197Z,17.25
2023-05-14T01:00:35.212Z,23.65
2023-05-14T01:03:03.265Z,21.08
2023-05-14T01:05:47.084Z,19.98
2023-05-14T01:08:22.230Z,20.17
2023-05-14T01:10:53.079Z,17.70
2023-05-14T01:13:21.016Z,17.52
2023-05-14T01:15:47.899Z,18.15
2023-05-14T01:18:16.948Z,26.17
2023-05-14T01:20:44.491Z,17.83
2023-05-14T01:23:11.260Z,19.20
2023-05-14T01:25:37.923Z,20.50
2023-05-14T01:28:33.887Z,21.70
2023-05-14T01:31:14.455Z,21.27
2023-05-14T01:33:41.606Z,26.77
2023-05-14T01:36:08.335Z,19.92
2023-05-14T01:38:35.012Z,19.48
2023-05-14T01:41:01.764Z,18.70
2023-05-14T01:43:28.547Z,21.48
2023-05-14T01:45:55.620Z,20.73
2023-05-14T01:48:22.517Z,19.58
2023-05-14T01:50:49.201Z,21.13
2023-05-14T01:53:15.886Z,18.45
2023-05-14T01:55:42.756Z,20.65
2023-05-14T01:58:09.410Z,25.05
2023-05-14T02:00:36.105Z,23.35
2023-05-14T02:03:02.877Z,28.23
2023-05-14T02:05:29.607Z,24.52
2023-05-14T02:07:56.330Z,26.00
2023-05-14T02:10:23.150Z,26.80
2023-05-14T02:12:50.067Z,26.70
2023-05-14T02:15:16.894Z,27.67
2023-05-14T02:17:43.718Z,26.08
2023-05-14T02:20:11.112Z,24.90
2023-05-14T02:22:38.007Z,26.27
2023-05-14T02:25:05.242Z,25.42
2023-05-14T02:27:31.925Z,32.08
2023-05-14T02:30:00.859Z,27.98
2023-05-14T02:32:28.346Z,26.70
2023-05-14T02:34:58.312Z,22.17
2023-05-14T02:37:25.045Z,20.65
2023-05-14T02:39:52.305Z,22.88
2023-05-14T02:42:19.004Z,19.25
2023-05-14T02:44:45.831Z,23.05
2023-05-14T02:47:12.525Z,19.02
2023-05-14T02:49:40.153Z,18.60
2023-05-14T02:52:07.131Z,24.45
2023-05-14T02:54:33.937Z,25.80
2023-05-14T02:57:00.666Z,23.52
2023-05-14T02:59:27.458Z,23.08
2023-05-14T03:01:54.406Z,26.67
2023-05-14T03:04:21.508Z,21.50
2023-05-14T03:06:48.247Z,22.48
2023-05-14T03:09:14.984Z,21.30
2023-05-14T03:11:41.724Z,20.65
2023-05-14T03:14:08.398Z,28.50
2023-05-14T03:16:35.154Z,24.35
2023-05-14T03:19:01.924Z,25.70
2023-05-14T03:21:28.688Z,24.10
2023-05-14T03:23:55.384Z,25.55
2023-05-14T03:26:22.054Z,26.73
2023-05-14T03:28:48.908Z,24.40
2023-05-14T03:31:15.714Z,33.22
2023-05-14T03:33:42.494Z,24.90
2023-05-14T03:36:09.333Z,31.25
2023-05-14T03:38:36.008Z,30.50
2023-05-14T03:41:02.719Z,29.48
2023-05-14T03:43:29.515Z,25.48
2023-05-14T03:45:56.214Z,25.92
2023-05-14T03:48:23.003Z,25.65
2023-05-14T03:50:49.760Z,28.20
2023-05-14T03:53:16.787Z,30.77
2023-05-14T03:55:43.501Z,30.65
2023-05-14T03:58:14.438Z,27.98
2023-05-14T04:00:44.377Z,30.83
2023-05-14T04:03:11.874Z,24.55
2023-05-14T04:05:38.742Z,32.92
2023-05-14T04:08:05.868Z,30.38
2023-05-14T04:10:32.643Z,29.83
2023-05-14T04:12:59.366Z,33.35
2023-05-14T04:15:26.194Z,34.65
2023-05-14T04:17:52.959Z,38.03
2023-05-14T04:20:19.752Z,35.40
2023-05-14T04:22:46.497Z,33.13
2023-05-14T04:25:13.342Z,32.60
2023-05-14T04:27:40.129Z,31.23
2023-05-14T04:30:08.439Z,35.90
2023-05-14T04:32:35.450Z,30.45
2023-05-14T04:35:02.457Z,32.05
2023-05-14T04:37:29.148Z,31.90
2023-05-14T04:39:55.834Z,31.23
2023-05-14T04:42:22.555Z,33.72
2023-05-14T04:44:49.228Z,34.67
2023-05-14T04:47:16.129Z,27.60
2023-05-14T04:49:43.318Z,33.17
2023-05-14T04:52:10.067Z,35.20
2023-05-14T04:54:36.791Z,31.30
2023-05-14T04:57:03.614Z,34.25
2023-05-14T04:59:30.942Z,32.83
2023-05-14T05:01:57.833Z,29.35
2023-05-14T05:04:24.754Z,33.67
2023-05-14T05:06:51.489Z,34.70
2023-05-14T05:09:18.724Z,32.10
2023-05-14T05:11:45.410Z,38.97
2023-05-14T05:14:12.073Z,37.75
2023-05-14T05:16:38.768Z,33.45
2023-05-14T05:19:05.537Z,31.05
2023-05-14T05:21:32.274Z,33.40
2023-05-14T05:23:58.935Z,32.45
2023-05-14T05:26:26.869Z,34.08
2023-05-14T05:28:53.692Z,39.78
2023-05-14T05:31:20.587Z,30.90
2023-05-14T05:33:47.649Z,31.58
2023-05-14T05:36:14.402Z,31.33
2023-05-14T05:38:41.500Z,32.00
2023-05-14T05:41:08.355Z,29.85
2023-05-14T05:43:35.044Z,31.75
2023-05-14T05:46:01.831Z,29.75
2023-05-14T05:48:28.544Z,30.63
2023-05-14T05:50:55.220Z,31.50
2023-05-14T05:53:21.949Z,28.77
2023-05-14T05:55:48.606Z,28.42
2023-05-14T05:58:17.280Z,28.98
2023-05-14T06:00:44.163Z,31.65
2023-05-14T06:03:11.474Z,28.83
2023-05-14T06:05:38.419Z,32.13
2023-05-14T06:08:05.675Z,28.45
2023-05-14T06:10:32.521Z,28.83
2023-05-14T06:12:59.181Z,29.65
2023-05-14T06:15:25.945Z,33.67
2023-05-14T06:17:52.676Z,29.77
2023-05-14T06:20:19.521Z,34.90
2023-05-14T06:22:46.201Z,27.23
2023-05-14T06:25:12.933Z,29.83
2023-05-14T06:27:39.601Z,33.25
2023-05-14T06:30:07.167Z,31.38
2023-05-14T06:32:33.872Z,27.35
2023-05-14T06:35:00.697Z,31.02
2023-05-14T06:37:27.462Z,29.92
2023-05-14T06:39:55.251Z,28.45
2023-05-14T06:42:23.875Z,31.75
2023-05-14T06:44:50.578Z,32.22
2023-05-14T06:47:17.244Z,31.80
2023-05-14T06:49:43.936Z,33.90
2023-05-14T06:52:10.639Z,31.27
2023-05-14T06:54:37.446Z,29.95
2023-05-14T06:57:04.383Z,38.10
2023-05-14T06:59:31.095Z,33.58
2023-05-14T07:01:57.879Z,32.40
2023-05-14T07:04:24.726Z,32.40
2023-05-14T07:06:51.566Z,33.08
2023-05-14T07:09:18.696Z,36.83
2023-05-14T07:11:45.650Z,34.17
2023-05-14T07:14:12.634Z,29.90
2023-05-14T07:16:40.183Z,34.72
2023-05-14T07:19:07.149Z,34.13
2023-05-14T07:21:34.959Z,34.72
2023-05-14T07:24:02.032Z,30.27
2023-05-14T07:26:28.759Z,33.80
2023-05-14T07:28:56.653Z,32.53
2023-05-14T07:31:23.508Z,30.98
2023-05-14T07:33:50.349Z,36.67
2023-05-14T07:36:17.098Z,29.42
2023-05-14T07:38:43.798Z,30.98
2023-05-14T07:41:12.200Z,23.92
2023-05-14T07:43:40.461Z,25.15
2023-05-14T07:46:07.256Z,24.27
2023-05-14T07:48:34.138Z,28.02
2023-05-14T07:51:00.998Z,32.75
2023-05-14T07:53:27.764Z,30.38
2023-05-14T07:55:54.782Z,28.17
2023-05-14T07:58:21.597Z,27.63
2023-05-14T08:00:48.256Z,24.08
2023-05-14T08:03:15.153Z,28.40
2023-05-14T08:05:41.934Z,27.63
2023-05-14T08:08:09.056Z,26.25
2023-05-14T08:10:35.899Z,25.15
2023-05-14T08:13:02.993Z,26.13
2023-05-14T08:15:29.734Z,22.42
2023-05-14T08:17:56.734Z,23.52
2023-05-14T08:20:24.152Z,22.30
2023-05-14T08:22:51.171Z,22.77
2023-05-14T08:25:17.954Z,21.75
2023-05-14T08:27:44.720Z,23.30
2023-05-14T08:30:11.819Z,22.40
2023-05-14T08:32:39.422Z,24.58
2023-05-14T08:35:06.800Z,22.60
2023-05-14T08:37:33.607Z,20.40
2023-05-14T08:40:00.379Z,23.08
2023-05-14T08:42:27.116Z,24.05
2023-05-14T08:44:57.919Z,21.65
2023-05-14T08:47:24.726Z,21.48
2023-05-14T08:50:02.867Z,23.65
2023-05-14T08:52:29.813Z,22.88
2023-05-14T08:54:56.584Z,20.80
2023-05-14T08:57:24.899Z,21.65
2023-05-14T08:59:52.170Z,29.10
2023-05-14T09:02:20.736Z,29.35
2023-05-14T09:04:47.796Z,22.60
2023-05-14T09:07:14.460Z,27.58
2023-05-14T09:09:41.437Z,22.52
2023-05-14T09:12:08.557Z,27.05
2023-05-14T09:14:37.184Z,26.52
2023-05-14T09:17:04.683Z,26.23
2023-05-14T09:19:31.506Z,24.00
2023-05-14T09:22:01.456Z,23.15
2023-05-14T09:24:31.059Z,24.42
2023-05-14T09:26:58.136Z,20.58
2023-05-14T09:29:26.080Z,21.70
2023-05-14T09:31:53.001Z,26.45
2023-05-14T09:34:30.633Z,25.23
2023-05-14T09:36:58.313Z,22.17
2023-05-14T09:39:25.494Z,24.67
2023-05-14T09:41:52.416Z,27.05
2023-05-14T09:44:19.794Z,19.67
2023-05-14T09:46:46.820Z,22.58
2023-05-14T09:49:13.583Z,23.48
2023-05-14T09:51:40.399Z,28.67
2023-05-14T09:54:07.336Z,28.55
2023-05-14T09:56:34.358Z,21.42
2023-05-14T09:59:01.191Z,23.77
2023-05-14T10:01:29.056Z,28.90
2023-05-14T10:03:55.984Z,23.08
2023-05-14T10:06:27.796Z,21.48
2023-05-14T10:08:56.414Z,18.00
2023-05-14T10:11:25.915Z,19.23
2023-05-14T10:13:57.200Z,23.45
2023-05-14T10:16:31.439Z,21.75
2023-05-14T10:19:01.498Z,19.70
2023-05-14T10:21:28.593Z,19.25
2023-05-14T10:23:55.352Z,20.88
2023-05-14T10:26:24.030Z,21.98
2023-05-14T10:28:50.991Z,16.45
2023-05-14T10:31:17.739Z,19.35
2023-05-14T10:33:50.205Z,20.35
2023-05-14T10:36:20.052Z,20.17
2023-05-14T10:38:47.272Z,21.25
2023-05-14T10:41:18.044Z,19.90
2023-05-14T10:43:45.171Z,21.92
2023-05-14T10:46:19.582Z,18.41
2023-05-14T10:48:46.314Z,25.45
2023-05-14T10:51:13.388Z,20.25
2023-05-14T10:53:41.576Z,19.13
2023-05-14T10:56:10.472Z,21.50
2023-05-14T10:58:38.272Z,19.20
2023-05-14T11:01:06.699Z,23.48
2023-05-14T11:03:38.660Z,20.45
2023-05-14T11:06:05.503Z,24.33
2023-05-14T11:08:32.318Z,19.00
2023-05-14T11:10:59.025Z,19.35
2023-05-14T11:13:26.746Z,21.40
2023-05-14T11:15:53.650Z,21.23
2023-05-14T11:18:31.008Z,24.33
2023-05-14T11:21:01.216Z,19.35
2023-05-14T11:23:28.160Z,17.35
2023-05-14T11:25:55.874Z,21.17
2023-05-14T11:28:23.427Z,22.92
2023-05-14T11:30:53.807Z,21.10
2023-05-14T11:33:20.954Z,23.35
2023-05-14T11:35:48.463Z,18.65
2023-05-14T11:38:19.563Z,18.60
2023-05-14T11:40:56.036Z,20.55
2023-05-14T11:43:23.808Z,19.63
2023-05-14T11:45:52.249Z,18.33
2023-05-14T11:48:19.816Z,17.80
2023-05-14T11:50:51.002Z,21.88
2023-05-14T11:53:29.337Z,19.17
2023-05-14T11:55:57.795Z,21.23
2023-05-14T11:58:24.913Z,21.88
2023-05-14T12:00:52.368Z,20.60
2023-05-14T12:03:26.032Z,17.77
2023-05-14T12:06:00.375Z,16.55
2023-05-14T12:08:31.382Z,18.65
2023-05-14T12:11:01.102Z,17.38
2023-05-14T12:13:28.440Z,15.93
2023-05-14T12:15:56.982Z,17.95
2023-05-14T12:18:28.272Z,20.00
2023-05-14T12:20:55.236Z,15.15
2023-05-14T12:23:28.977Z,13.85
2023-05-14T12:25:55.918Z,14.90
2023-05-14T12:28:23.367Z,12.07
2023-05-14T12:30:56.398Z,13.77
2023-05-14T12:33:26.618Z,18.27
2023-05-14T12:35:53.940Z,12.75
2023-05-14T12:38:20.843Z,14.70
2023-05-14T12:40:47.691Z,13.32
2023-05-14T12:43:14.505Z,13.15
2023-05-14T12:45:41.267Z,14.05
2023-05-14T12:48:08.073Z,17.92
2023-05-14T12:50:34.779Z,14.70
2023-05-14T12:53:01.561Z,13.90
2023-05-14T12:55:28.277Z,12.50
2023-05-14T12:57:55.032Z,14.93
2023-05-14T13:00:22.018Z,17.95
2023-05-14T13:02:48.986Z,14.88
2023-05-14T13:05:15.913Z,13.80
2023-05-14T13:07:42.756Z,16.77
2023-05-14T13:10:10.071Z,14.88
2023-05-14T13:12:36.926Z,13.85
2023-05-14T13:15:03.938Z,12.95
2023-05-14T13:17:30.699Z,11.40
2023-05-14T13:19:57.528Z,12.38
2023-05-14T13:22:24.352Z,11.70
2023-05-14T13:24:51.127Z,12.10
2023-05-14T13:27:17.850Z,9.90
2023-05-14T13:29:44.577Z,10.10
2023-05-14T13:32:11.374Z,10.55
2023-05-14T13:34:38.131Z,10.32
2023-05-14T13:37:05.381Z,11.23
2023-05-14T13:39:32.213Z,13.27
2023-05-14T13:41:58.912Z,10.00
2023-05-14T13:44:25.767Z,13.65
2023-05-14T13:46:53.403Z,8.45
2023-05-14T13:49:20.421Z,12.25
2023-05-14T13:51:47.146Z,13.57
2023-05-14T13:54:13.828Z,12.48
2023-05-14T13:56:40.535Z,12.82
2023-05-14T13:59:07.299Z,11.63
2023-05-14T14:01:34.225Z,11.25
2023-05-14T14:04:01.011Z,11.73
2023-05-14T14:06:27.733Z,14.88
2023-05-14T14:08:54.459Z,12.50
2023-05-14T14:11:21.857Z,16.67
2023-05-14T14:13:48.786Z,11.15
2023-05-14T14:16:16.266Z,10.85
2023-05-14T14:18:43.778Z,12.13
2023-05-14T14:21:10.720Z,13.35
2023-05-14T14:23:37.448Z,11.85
2023-05-14T14:26:04.267Z,11.40
2023-05-14T14:28:31.366Z,9.52
2023-05-14T14:30:58.362Z,14.07
2023-05-14T14:33:25.451Z,10.90
2023-05-14T14:35:52.931Z,7.82
2023-05-14T14:38:19.929Z,10.15
2023-05-14T14:40:46.871Z,7.68
2023-05-14T14:43:13.549Z,9.10
2023-05-14T14:45:40.452Z,7.20
2023-05-14T14:48:27.260Z,5.82
2023-05-14T14:50:54.606Z,12.13
2023-05-14T14:53:24.427Z,8.45
2023-05-14T14:55:51.373Z,12.05
2023-05-14T14:58:18.814Z,10.55
2023-05-14T15:00:45.773Z,7.85
2023-05-14T15:03:12.864Z,10.75
2023-05-14T15:05:39.722Z,10.63
2023-05-14T15:08:06.535Z,6.90
2023-05-14T15:10:37.618Z,8.70
2023-05-14T15:13:05.259Z,8.88
2023-05-14T15:15:35.460Z,8.65
2023-05-14T15:18:02.710Z,8.88
2023-05-14T15:20:29.462Z,9.10
2023-05-14T15:22:56.292Z,10.57
2023-05-14T15:25:23.692Z,11.40
2023-05-14T15:27:50.915Z,12.85
2023-05-14T15:30:17.676Z,10.10
2023-05-14T15:32:45.046Z,7.88
2023-05-14T15:35:11.938Z,8.52
2023-05-14T15:37:43.367Z,10.10
2023-05-14T15:40:11.003Z,10.55
2023-05-14T15:42:42.532Z,6.78
2023-05-14T15:45:10.849Z,8.10
2023-05-14T15:47:37.950Z,8.60
2023-05-14T15:50:05.437Z,8.50
2023-05-14T15:52:32.204Z,9.75
2023-05-14T15:54:59.580Z,14.98
2023-05-14T15:57:26.488Z,8.52
2023-05-14T15:59:54.652Z,16.58
2023-05-14T16:02:21.389Z,10.68
2023-05-14T16:04:49.563Z,8.57
2023-05-14T16:07:17.192Z,8.98
2023-05-14T16:09:44.208Z,6.72
2023-05-14T16:12:11.690Z,6.75
2023-05-14T16:14:41.277Z,10.10
2023-05-14T16:17:08.960Z,6.70
2023-05-14T16:19:35.718Z,10.85
2023-05-14T16:22:02.512Z,8.30
2023-05-14T16:24:29.304Z,7.57
2023-05-14T16:26:56.125Z,9.40
2023-05-14T16:29:23.032Z,14.18
2023-05-14T16:31:49.914Z,14.60
2023-05-14T16:34:16.601Z,9.05
2023-05-14T16:36:43.469Z,10.80
2023-05-14T16:39:11.435Z,10.38
2023-05-14T16:41:38.395Z,8.25
2023-05-14T16:44:05.496Z,8.32
2023-05-14T16:46:33.107Z,9.85
2023-05-14T16:49:00.478Z,7.55
2023-05-14T16:51:27.224Z,8.13
2023-05-14T16:53:55.464Z,7.20
2023-05-14T16:56:29.967Z,8.00
2023-05-14T16:58:56.679Z,9.13
2023-05-14T17:01:23.540Z,9.57
2023-05-14T17:03:50.306Z,11.10
2023-05-14T17:06:17.006Z,8.38
2023-05-14T17:08:43.676Z,11.80
2023-05-14T17:11:10.438Z,7.55
2023-05-14T17:13:37.245Z,6.82
2023-05-14T17:16:04.342Z,10.70
2023-05-14T17:18:32.648Z,9.13
2023-05-14T17:20:59.848Z,6.43
2023-05-14T17:23:26.619Z,10.63
2023-05-14T17:25:53.407Z,12.07
2023-05-14T17:28:20.584Z,7.55
2023-05-14T17:30:47.291Z,8.43
2023-05-14T17:33:14.166Z,8.48
2023-05-14T17:35:43.742Z,9.05
2023-05-14T17:38:10.499Z,10.23
2023-05-14T17:40:37.441Z,11.70
2023-05-14T17:43:04.289Z,8.90
2023-05-14T17:45:39.355Z,10.80
2023-05-14T17:48:13.383Z,6.95
2023-05-14T17:50:40.479Z,6.70
2023-05-14T17:53:07.272Z,6.18
2023-05-14T17:55:39.852Z,10.45
2023-05-14T17:58:06.574Z,7.73
2023-05-14T18:00:33.354Z,6.30
2023-05-14T18:03:00.356Z,9.35
2023-05-14T18:05:29.041Z,8.65
2023-05-14T18:07:57.995Z,10.52
2023-05-14T18:10:25.472Z,8.23
2023-05-14T18:12:52.256Z,7.20
2023-05-14T18:15:20.418Z,6.88
2023-05-14T18:17:47.269Z,9.07
2023-05-14T18:20:14.065Z,9.05
2023-05-14T18:22:40.836Z,8.98
2023-05-14T18:25:10.731Z,9.57
2023-05-14T18:27:42.467Z,13.88
2023-05-14T18:30:11.088Z,15.48
2023-05-14T18:32:37.879Z,18.42
2023-05-14T18:35:07.743Z,19.00
2023-05-14T18:37:35.218Z,19.50
2023-05-14T18:40:02.980Z,22.10
2023-05-14T18:42:29.805Z,19.67
2023-05-14T18:44:56.627Z,21.55
2023-05-14T18:47:23.367Z,23.00
2023-05-14T18:49:54.768Z,26.55
2023-05-14T18:52:26.192Z,25.52
2023-05-14T18:54:53.810Z,23.88
2023-05-14T18:57:21.125Z,28.25
2023-05-14T18:59:47.874Z,26.40
2023-05-14T19:02:14.734Z,28.40
2023-05-14T19:04:51.658Z,34.40
2023-05-14T19:07:19.447Z,30.48
2023-05-14T19:09:46.506Z,36.50
2023-05-14T19:12:13.638Z,34.78
2023-05-14T19:14:40.446Z,36.60
2023-05-14T19:17:07.438Z,31.23
2023-05-14T19:19:34.168Z,32.55
2023-05-14T19:22:00.903Z,34.05
2023-05-14T19:24:27.658Z,34.10
2023-05-14T19:26:54.350Z,42.33
2023-05-14T19:29:21.051Z,33.72
2023-05-14T19:31:47.780Z,33.20
2023-05-14T19:34:14.659Z,30.84
2023-05-14T19:36:41.715Z,33.50
2023-05-14T19:39:08.423Z,33.42
2023-05-14T19:41:35.187Z,32.55
2023-05-14T19:44:01.973Z,33.15
2023-05-14T19:46:29.055Z,33.95
2023-05-14T19:48:55.938Z,30.98
2023-05-14T19:51:22.675Z,31.70
2023-05-14T19:53:49.616Z,34.47
2023-05-14T19:56:16.560Z,34.78
2023-05-14T19:58:44.303Z,31.17
2023-05-14T20:01:12.010Z,31.58
2023-05-14T20:03:39.041Z,29.27
2023-05-14T20:06:07.129Z,31.23
2023-05-14T20:08:33.913Z,29.38
2023-05-14T20:11:00.921Z,27.85
2023-05-14T20:13:27.762Z,30.58
2023-05-14T20:15:55.180Z,27.17
2023-05-14T20:18:22.121Z,32.25
2023-05-14T20:20:49.103Z,24.60
2023-05-14T20:23:15.965Z,26.80
2023-05-14T20:25:43.154Z,21.73
2023-05-14T20:28:10.440Z,33.35
2023-05-14T20:30:37.348Z,21.80
2023-05-14T20:33:04.143Z,23.77
2023-05-14T20:35:31.248Z,22.63
2023-05-14T20:37:58.600Z,22.52
2023-05-14T20:40:28.458Z,21.27
2023-05-14T20:42:55.418Z,21.38
2023-05-14T20:45:22.298Z,22.77
2023-05-14T20:47:49.169Z,19.95
2023-05-14T20:50:16.349Z,24.55
2023-05-14T20:52:43.285Z,22.58
2023-05-14T20:55:10.337Z,22.25
2023-05-14T20:57:37.384Z,17.55
2023-05-14T21:00:08.036Z,19.95
2023-05-14T21:02:35.017Z,11.57
2023-05-14T21:05:01.912Z,9.55
2023-05-14T21:07:29.063Z,11.95
2023-05-14T21:09:55.918Z,7.78
2023-05-14T21:12:22.679Z,6.15
2023-05-14T21:14:49.442Z,3.90
2023-05-14T21:17:16.250Z,5.88
2023-05-14T21:19:43.286Z,6.55
2023-05-14T21:22:09.974Z,2.38
2023-05-14T21:24:36.877Z,2.70
2023-05-14T21:27:03.857Z,3.22
2023-05-14T21:29:30.643Z,7.43
2023-05-14T21:31:57.409Z,2.28
2023-05-14T21:34:24.209Z,2.83
2023-05-14T21:36:51.003Z,4.75
2023-05-14T21:39:17.768Z,2.47
2023-05-14T21:41:44.531Z,1.95
2023-05-14T21:44:11.300Z,2.60
2023-05-14T21:46:43.575Z,1.33
2023-05-14T21:49:10.238Z,2.10
2023-05-14T21:51:36.983Z,5.53
2023-05-14T21:54:03.783Z,2.78
2023-05-14T21:56:30.505Z,3.13
2023-05-14T21:58:57.382Z,2.63
2023-05-14T22:01:24.144Z,6.32
2023-05-14T22:03:50.888Z,4.47
2023-05-14T22:06:17.626Z,3.88
2023-05-14T22:08:44.315Z,2.33
2023-05-14T22:11:11.113Z,4.38
2023-05-14T22:13:40.937Z,5.10
2023-05-14T22:16:12.763Z,4.03
2023-05-14T22:18:40.497Z,4.18
2023-05-14T22:21:07.233Z,2.00
2023-05-14T22:23:34.237Z,3.28
2023-05-14T22:26:01.151Z,2.90
2023-05-14T22:28:27.976Z,3.13
2023-05-14T22:30:56.442Z,5.45
2023-05-14T22:33:23.349Z,4.90
2023-05-14T22:35:50.552Z,2.08
2023-05-14T22:38:17.442Z,2.80
2023-05-14T22:40:44.126Z,1.80
2023-05-14T22:43:10.875Z,2.70
2023-05-14T22:45:37.716Z,3.03
2023-05-14T22:48:04.631Z,1.70
2023-05-14T22:50:31.466Z,1.77
2023-05-14T22:52:58.240Z,2.25
2023-05-14T22:55:25.262Z,1.77
2023-05-14T22:57:52.161Z,1.92
2023-05-14T23:00:19.311Z,2.20
2023-05-14T23:02:46.235Z,2.20
2023-05-14T23:05:13.093Z,3.08
2023-05-14T23:07:39.824Z,7.30
2023-05-14T23:10:07.006Z,2.45
2023-05-14T23:12:33.772Z,1.98
2023-05-14T23:15:00.537Z,2.97
2023-05-14T23:17:27.385Z,3.25
2023-05-14T23:19:54.332Z,1.42
2023-05-14T23:22:21.095Z,3.53
2023-05-14T23:24:47.802Z,2.42
2023-05-14T23:27:14.476Z,3.63
2023-05-14T23:29:41.208Z,3.92
2023-05-14T23:32:08.495Z,5.72
2023-05-14T23:34:35.416Z,7.97
2023-05-14T23:37:02.184Z,2.40
2023-05-14T23:39:28.877Z,5.05
2023-05-14T23:41:55.597Z,2.80
2023-05-14T23:44:22.585Z,2.67
2023-05-14T23:46:49.415Z,3.42
2023-05-14T23:49:16.090Z,3.17
2023-05-14T23:51:42.876Z,3.80
2023-05-14T23:54:09.622Z,3.33
2023-05-14T23:56:36.299Z,2.65
2023-05-14T23:59:03.626Z,9.13
